Alexandria International Airport
KAEX : now visible

Airfield :











YOU CAN JOIN US ON...

 
LOGIN :

Register | Disclaimer

   EN    FR    IT 

 









Legend :    VFR   Marginal VFR   IFR   Intensive IFR   Very Intensive IFR
Visi :
Ceiling :
>= 8 km
>= 3000ft
5 to 8 km
1000 to 3000 ft
1500m to 5 km
500 to 1000 ft
800 to 1500m
200 to 500 ft
< 800m
< 200 ft
Symbols :   Thunderstorms  Fog  Heavy snow  Heavy precipitations  Wind > 20 kt






- Airport Elevation : 89 ft
- IATA code : AEX


KAEX - Alexandria International

CURRENT METAR :
  • 041953Z 33007KT 10SM CLR 34/20 A2996 RMK AO2 SLP148 T03390200

EXPIRED METARs :
  • 041853Z VRB03KT 10SM CLR 32/19 A2998 RMK AO2 SLP154 T03220194
  • 041753Z 00000KT 10SM OVC065 31/19 A3000 RMK AO2 SLP160 T03060189 10317 20211 50001

TAF KAEX
Valid from the 04 at 18:00 until the 05 at 18:00 UTC


041722Z 0418/0518 29006KT P6SM SCT250
FM050100 VRB03KT P6SM SKC
KZHU FIR / North America



MET'MAP, your aeronautical weather chart ! - Copyright ORBIFLY December 2007 - Disclaimer

ORBIFLY MET'MAP TEAM :

Programming & Development : Alexandra Zaïnal
Concept & original design : Baudouin d'Aumeries
Assistance for programming : Marc-Olivier Méhu
Technical & hardware support : Manuel Goepfert

Contact : metmap@orbifly.com




SOURCES & CREDITS :

   NOAA       Earth
Advisory